sensor_id;sensor_type;location;lat;lon;timestamp;temperature;humidity
80577;DHT22;69937;52.420;10.538;2023-09-19T00:04:32;15.90;76.20
80577;DHT22;69937;52.420;10.538;2023-09-19T00:09:33;15.80;76.20
80577;DHT22;69937;52.420;10.538;2023-09-19T00:14:37;15.80;76.50
80577;DHT22;69937;52.420;10.538;2023-09-19T00:19:38;15.80;76.60
80577;DHT22;69937;52.420;10.538;2023-09-19T00:24:38;15.70;76.50
80577;DHT22;69937;52.420;10.538;2023-09-19T00:29:39;15.60;76.70
80577;DHT22;69937;52.420;10.538;2023-09-19T00:34:39;15.60;76.80
80577;DHT22;69937;52.420;10.538;2023-09-19T00:39:40;15.60;76.80
80577;DHT22;69937;52.420;10.538;2023-09-19T00:44:41;15.60;76.80
80577;DHT22;69937;52.420;10.538;2023-09-19T00:49:42;15.60;76.80
80577;DHT22;69937;52.420;10.538;2023-09-19T00:54:42;15.60;76.80
80577;DHT22;69937;52.420;10.538;2023-09-19T00:59:43;15.60;76.60
80577;DHT22;69937;52.420;10.538;2023-09-19T01:04:44;15.60;76.60
80577;DHT22;69937;52.420;10.538;2023-09-19T01:09:45;15.60;76.60
80577;DHT22;69937;52.420;10.538;2023-09-19T01:15:06;15.60;76.50
80577;DHT22;69937;52.420;10.538;2023-09-19T01:31:02;15.80;75.80
80577;DHT22;69937;52.420;10.538;2023-09-19T01:36:03;15.80;75.80
80577;DHT22;69937;52.420;10.538;2023-09-19T01:41:11;15.80;75.70
80577;DHT22;69937;52.420;10.538;2023-09-19T01:46:40;15.80;75.60
80577;DHT22;69937;52.420;10.538;2023-09-19T01:52:04;15.80;75.40
80577;DHT22;69937;52.420;10.538;2023-09-19T01:57:13;15.70;75.60
80577;DHT22;69937;52.420;10.538;2023-09-19T02:02:17;15.60;75.80
80577;DHT22;69937;52.420;10.538;2023-09-19T02:07:18;15.60;76.20
80577;DHT22;69937;52.420;10.538;2023-09-19T02:12:18;15.60;76.20
80577;DHT22;69937;52.420;10.538;2023-09-19T02:17:19;15.60;76.20
80577;DHT22;69937;52.420;10.538;2023-09-19T02:22:19;15.50;76.40
80577;DHT22;69937;52.420;10.538;2023-09-19T02:27:20;15.50;76.30
80577;DHT22;69937;52.420;10.538;2023-09-19T02:32:20;15.40;76.50
80577;DHT22;69937;52.420;10.538;2023-09-19T02:37:21;15.40;76.40
80577;DHT22;69937;52.420;10.538;2023-09-19T02:42:22;15.30;76.60
80577;DHT22;69937;52.420;10.538;2023-09-19T02:47:22;15.30;76.70
80577;DHT22;69937;52.420;10.538;2023-09-19T02:52:23;15.30;76.70
80577;DHT22;69937;52.420;10.538;2023-09-19T02:57:25;15.20;76.70
80577;DHT22;69937;52.420;10.538;2023-09-19T03:02:25;15.20;76.60
80577;DHT22;69937;52.420;10.538;2023-09-19T03:07:28;15.20;76.40
80577;DHT22;69937;52.420;10.538;2023-09-19T03:12:28;15.20;76.20
80577;DHT22;69937;52.420;10.538;2023-09-19T03:17:29;15.10;76.30
80577;DHT22;69937;52.420;10.538;2023-09-19T03:22:30;15.10;76.20
80577;DHT22;69937;52.420;10.538;2023-09-19T03:27:30;15.00;76.40
80577;DHT22;69937;52.420;10.538;2023-09-19T03:32:31;15.00;76.40
80577;DHT22;69937;52.420;10.538;2023-09-19T03:37:32;14.90;76.40
80577;DHT22;69937;52.420;10.538;2023-09-19T03:42:34;14.90;76.20
80577;DHT22;69937;52.420;10.538;2023-09-19T03:47:36;14.90;75.90
80577;DHT22;69937;52.420;10.538;2023-09-19T03:52:37;14.90;75.90
80577;DHT22;69937;52.420;10.538;2023-09-19T03:57:38;14.90;76.00
80577;DHT22;69937;52.420;10.538;2023-09-19T04:02:39;14.90;76.00
80577;DHT22;69937;52.420;10.538;2023-09-19T04:07:40;14.80;76.20
80577;DHT22;69937;52.420;10.538;2023-09-19T04:12:41;14.80;76.10
80577;DHT22;69937;52.420;10.538;2023-09-19T04:17:50;14.80;76.00
80577;DHT22;69937;52.420;10.538;2023-09-19T04:22:51;14.80;75.60
80577;DHT22;69937;52.420;10.538;2023-09-19T04:27:52;14.90;75.00
80577;DHT22;69937;52.420;10.538;2023-09-19T04:32:52;14.90;74.20
80577;DHT22;69937;52.420;10.538;2023-09-19T04:37:53;15.00;73.30
80577;DHT22;69937;52.420;10.538;2023-09-19T04:42:58;15.00;72.60
80577;DHT22;69937;52.420;10.538;2023-09-19T04:48:00;15.00;71.90
80577;DHT22;69937;52.420;10.538;2023-09-19T04:53:00;15.00;72.10
80577;DHT22;69937;52.420;10.538;2023-09-19T04:58:02;15.00;72.30
80577;DHT22;69937;52.420;10.538;2023-09-19T05:03:03;15.00;72.70
80577;DHT22;69937;52.420;10.538;2023-09-19T05:08:04;15.00;73.60
80577;DHT22;69937;52.420;10.538;2023-09-19T05:13:05;15.00;73.90
80577;DHT22;69937;52.420;10.538;2023-09-19T05:18:07;15.00;73.30
80577;DHT22;69937;52.420;10.538;2023-09-19T05:23:08;15.00;73.00
80577;DHT22;69937;52.420;10.538;2023-09-19T05:28:10;15.00;72.70
80577;DHT22;69937;52.420;10.538;2023-09-19T05:33:12;15.00;72.50
80577;DHT22;69937;52.420;10.538;2023-09-19T05:38:12;15.00;72.30
80577;DHT22;69937;52.420;10.538;2023-09-19T05:43:14;15.00;71.90
80577;DHT22;69937;52.420;10.538;2023-09-19T05:48:15;15.00;71.90
80577;DHT22;69937;52.420;10.538;2023-09-19T05:53:16;14.90;72.00
80577;DHT22;69937;52.420;10.538;2023-09-19T05:58:17;14.90;71.80
80577;DHT22;69937;52.420;10.538;2023-09-19T06:03:20;14.90;71.80
80577;DHT22;69937;52.420;10.538;2023-09-19T06:08:20;14.90;71.90
80577;DHT22;69937;52.420;10.538;2023-09-19T06:13:21;14.90;71.90
80577;DHT22;69937;52.420;10.538;2023-09-19T06:18:22;14.90;71.70
80577;DHT22;69937;52.420;10.538;2023-09-19T06:23:26;14.90;71.20
80577;DHT22;69937;52.420;10.538;2023-09-19T06:28:29;15.00;70.90
80577;DHT22;69937;52.420;10.538;2023-09-19T06:33:29;15.00;70.10
80577;DHT22;69937;52.420;10.538;2023-09-19T06:38:31;15.20;69.60
80577;DHT22;69937;52.420;10.538;2023-09-19T06:43:34;15.30;69.60
80577;DHT22;69937;52.420;10.538;2023-09-19T06:48:35;15.40;68.40
80577;DHT22;69937;52.420;10.538;2023-09-19T06:53:36;15.50;68.00
80577;DHT22;69937;52.420;10.538;2023-09-19T06:58:36;15.60;67.30
80577;DHT22;69937;52.420;10.538;2023-09-19T07:03:37;15.60;66.50
80577;DHT22;69937;52.420;10.538;2023-09-19T07:08:38;15.80;66.40
80577;DHT22;69937;52.420;10.538;2023-09-19T07:13:40;15.80;65.70
80577;DHT22;69937;52.420;10.538;2023-09-19T07:18:40;15.90;66.10
80577;DHT22;69937;52.420;10.538;2023-09-19T07:23:41;16.00;65.70
80577;DHT22;69937;52.420;10.538;2023-09-19T07:28:42;16.10;65.50
80577;DHT22;69937;52.420;10.538;2023-09-19T07:33:42;16.10;65.00
80577;DHT22;69937;52.420;10.538;2023-09-19T07:38:43;16.40;65.30
80577;DHT22;69937;52.420;10.538;2023-09-19T07:43:43;16.40;64.70
80577;DHT22;69937;52.420;10.538;2023-09-19T07:48:44;16.40;64.60
80577;DHT22;69937;52.420;10.538;2023-09-19T07:53:49;16.60;64.10
80577;DHT22;69937;52.420;10.538;2023-09-19T07:58:49;16.80;63.70
80577;DHT22;69937;52.420;10.538;2023-09-19T08:03:51;16.90;62.70
80577;DHT22;69937;52.420;10.538;2023-09-19T08:08:51;17.00;62.50
80577;DHT22;69937;52.420;10.538;2023-09-19T08:13:54;17.20;61.70
80577;DHT22;69937;52.420;10.538;2023-09-19T08:18:54;17.20;60.80
80577;DHT22;69937;52.420;10.538;2023-09-19T08:23:55;17.20;60.20
80577;DHT22;69937;52.420;10.538;2023-09-19T08:28:57;17.50;59.70
80577;DHT22;69937;52.420;10.538;2023-09-19T08:33:58;17.50;59.20
80577;DHT22;69937;52.420;10.538;2023-09-19T08:39:00;17.50;59.60
80577;DHT22;69937;52.420;10.538;2023-09-19T08:44:00;17.50;58.80
80577;DHT22;69937;52.420;10.538;2023-09-19T08:49:11;17.40;58.50
80577;DHT22;69937;52.420;10.538;2023-09-19T08:54:28;17.50;58.40
80577;DHT22;69937;52.420;10.538;2023-09-19T08:59:29;17.60;58.30
80577;DHT22;69937;52.420;10.538;2023-09-19T09:04:33;17.60;58.90
80577;DHT22;69937;52.420;10.538;2023-09-19T09:09:35;18.00;58.50
80577;DHT22;69937;52.420;10.538;2023-09-19T09:14:36;18.00;57.10
80577;DHT22;69937;52.420;10.538;2023-09-19T09:19:37;18.00;57.30
80577;DHT22;69937;52.420;10.538;2023-09-19T09:24:53;18.20;57.60
80577;DHT22;69937;52.420;10.538;2023-09-19T09:29:54;18.30;57.20
80577;DHT22;69937;52.420;10.538;2023-09-19T09:34:58;18.60;57.10
80577;DHT22;69937;52.420;10.538;2023-09-19T09:40:01;18.70;55.70
80577;DHT22;69937;52.420;10.538;2023-09-19T09:45:24;18.70;55.00
80577;DHT22;69937;52.420;10.538;2023-09-19T09:50:35;18.60;55.40
80577;DHT22;69937;52.420;10.538;2023-09-19T09:56:09;18.40;56.10
80577;DHT22;69937;52.420;10.538;2023-09-19T10:01:12;18.30;55.50
80577;DHT22;69937;52.420;10.538;2023-09-19T10:06:17;18.40;55.70
80577;DHT22;69937;52.420;10.538;2023-09-19T10:11:23;18.50;56.10
80577;DHT22;69937;52.420;10.538;2023-09-19T10:16:30;18.70;56.60
80577;DHT22;69937;52.420;10.538;2023-09-19T10:21:33;18.50;55.60
80577;DHT22;69937;52.420;10.538;2023-09-19T10:26:36;18.40;55.70
80577;DHT22;69937;52.420;10.538;2023-09-19T10:31:38;18.30;55.80
80577;DHT22;69937;52.420;10.538;2023-09-19T10:36:45;18.40;56.60
80577;DHT22;69937;52.420;10.538;2023-09-19T10:41:50;18.40;55.70
80577;DHT22;69937;52.420;10.538;2023-09-19T10:46:54;18.50;55.20
80577;DHT22;69937;52.420;10.538;2023-09-19T10:51:58;18.60;55.50
80577;DHT22;69937;52.420;10.538;2023-09-19T10:57:01;18.60;55.60
80577;DHT22;69937;52.420;10.538;2023-09-19T11:02:18;18.40;55.50
80577;DHT22;69937;52.420;10.538;2023-09-19T11:07:18;18.90;55.20
80577;DHT22;69937;52.420;10.538;2023-09-19T11:17:42;18.70;55.60
80577;DHT22;69937;52.420;10.538;2023-09-19T11:33:29;19.60;54.00
80577;DHT22;69937;52.420;10.538;2023-09-19T11:43:45;20.00;52.60
80577;DHT22;69937;52.420;10.538;2023-09-19T11:48:48;20.30;52.30
80577;DHT22;69937;52.420;10.538;2023-09-19T11:53:51;20.30;51.60
80577;DHT22;69937;52.420;10.538;2023-09-19T11:58:53;20.20;51.20
80577;DHT22;69937;52.420;10.538;2023-09-19T12:03:56;20.00;51.50
80577;DHT22;69937;52.420;10.538;2023-09-19T12:08:58;20.00;51.70
80577;DHT22;69937;52.420;10.538;2023-09-19T12:14:00;20.00;51.30
80577;DHT22;69937;52.420;10.538;2023-09-19T12:19:18;20.10;51.30
80577;DHT22;69937;52.420;10.538;2023-09-19T12:24:21;20.50;50.70
80577;DHT22;69937;52.420;10.538;2023-09-19T12:29:22;20.80;49.60
80577;DHT22;69937;52.420;10.538;2023-09-19T12:34:41;21.10;49.00
80577;DHT22;69937;52.420;10.538;2023-09-19T12:39:45;21.30;48.80
80577;DHT22;69937;52.420;10.538;2023-09-19T12:44:51;21.20;48.80
80577;DHT22;69937;52.420;10.538;2023-09-19T12:50:13;21.30;48.30
80577;DHT22;69937;52.420;10.538;2023-09-19T12:55:27;21.00;49.50
80577;DHT22;69937;52.420;10.538;2023-09-19T13:00:54;20.80;49.70
80577;DHT22;69937;52.420;10.538;2023-09-19T13:05:57;21.10;49.00
80577;DHT22;69937;52.420;10.538;2023-09-19T13:11:13;21.20;49.90
80577;DHT22;69937;52.420;10.538;2023-09-19T13:16:15;21.20;49.40
80577;DHT22;69937;52.420;10.538;2023-09-19T13:21:30;21.00;49.20
80577;DHT22;69937;52.420;10.538;2023-09-19T13:26:38;21.20;49.00
80577;DHT22;69937;52.420;10.538;2023-09-19T13:31:39;21.40;48.70
80577;DHT22;69937;52.420;10.538;2023-09-19T13:36:42;21.60;48.00
80577;DHT22;69937;52.420;10.538;2023-09-19T13:41:47;21.70;47.90
80577;DHT22;69937;52.420;10.538;2023-09-19T13:46:48;21.80;47.90
80577;DHT22;69937;52.420;10.538;2023-09-19T13:51:48;22.30;48.00
80577;DHT22;69937;52.420;10.538;2023-09-19T13:56:49;22.80;46.80
80577;DHT22;69937;52.420;10.538;2023-09-19T14:01:50;22.90;46.60
80577;DHT22;69937;52.420;10.538;2023-09-19T14:06:50;23.20;45.60
80577;DHT22;69937;52.420;10.538;2023-09-19T14:11:51;23.00;45.80
80577;DHT22;69937;52.420;10.538;2023-09-19T14:16:53;22.90;46.10
80577;DHT22;69937;52.420;10.538;2023-09-19T14:21:53;23.10;45.70
80577;DHT22;69937;52.420;10.538;2023-09-19T14:26:56;23.40;45.60
80577;DHT22;69937;52.420;10.538;2023-09-19T14:31:57;23.50;45.80
80577;DHT22;69937;52.420;10.538;2023-09-19T14:36:58;24.40;45.20
80577;DHT22;69937;52.420;10.538;2023-09-19T14:41:58;24.30;45.00
80577;DHT22;69937;52.420;10.538;2023-09-19T14:46:59;24.00;45.20
80577;DHT22;69937;52.420;10.538;2023-09-19T14:52:00;23.50;45.10
80577;DHT22;69937;52.420;10.538;2023-09-19T14:57:04;23.40;45.70
80577;DHT22;69937;52.420;10.538;2023-09-19T15:02:05;23.30;44.80
80577;DHT22;69937;52.420;10.538;2023-09-19T15:07:05;23.50;44.90
80577;DHT22;69937;52.420;10.538;2023-09-19T15:12:06;22.90;45.40
80577;DHT22;69937;52.420;10.538;2023-09-19T15:17:09;23.10;46.00
80577;DHT22;69937;52.420;10.538;2023-09-19T15:22:09;22.60;45.90
80577;DHT22;69937;52.420;10.538;2023-09-19T15:27:11;22.50;46.70
80577;DHT22;69937;52.420;10.538;2023-09-19T15:32:12;22.10;46.90
80577;DHT22;69937;52.420;10.538;2023-09-19T15:37:12;21.90;47.30
80577;DHT22;69937;52.420;10.538;2023-09-19T15:42:13;21.50;48.00
80577;DHT22;69937;52.420;10.538;2023-09-19T15:47:16;21.30;48.70
80577;DHT22;69937;52.420;10.538;2023-09-19T15:52:17;21.10;49.10
80577;DHT22;69937;52.420;10.538;2023-09-19T15:57:18;21.10;49.30
80577;DHT22;69937;52.420;10.538;2023-09-19T16:02:18;21.10;49.60
80577;DHT22;69937;52.420;10.538;2023-09-19T16:07:19;21.10;49.60
80577;DHT22;69937;52.420;10.538;2023-09-19T16:12:20;21.10;49.70
80577;DHT22;69937;52.420;10.538;2023-09-19T16:17:20;21.20;49.80
80577;DHT22;69937;52.420;10.538;2023-09-19T16:22:21;21.10;50.40
80577;DHT22;69937;52.420;10.538;2023-09-19T16:27:21;20.90;50.60
80577;DHT22;69937;52.420;10.538;2023-09-19T16:32:22;20.50;51.30
80577;DHT22;69937;52.420;10.538;2023-09-19T16:37:22;20.30;51.70
80577;DHT22;69937;52.420;10.538;2023-09-19T16:42:23;20.00;52.50
80577;DHT22;69937;52.420;10.538;2023-09-19T16:47:24;19.80;52.80
80577;DHT22;69937;52.420;10.538;2023-09-19T16:52:25;19.70;53.20
80577;DHT22;69937;52.420;10.538;2023-09-19T16:57:25;19.50;53.60
80577;DHT22;69937;52.420;10.538;2023-09-19T17:02:26;19.50;53.70
80577;DHT22;69937;52.420;10.538;2023-09-19T17:07:28;19.40;54.00
80577;DHT22;69937;52.420;10.538;2023-09-19T17:12:30;19.40;53.80
80577;DHT22;69937;52.420;10.538;2023-09-19T17:17:30;19.30;53.90
80577;DHT22;69937;52.420;10.538;2023-09-19T17:22:31;19.20;54.00
80577;DHT22;69937;52.420;10.538;2023-09-19T17:27:32;19.10;54.10
80577;DHT22;69937;52.420;10.538;2023-09-19T17:32:34;19.00;54.60
80577;DHT22;69937;52.420;10.538;2023-09-19T17:37:35;18.90;54.70
80577;DHT22;69937;52.420;10.538;2023-09-19T17:42:42;18.80;55.00
80577;DHT22;69937;52.420;10.538;2023-09-19T17:47:43;18.70;55.20
80577;DHT22;69937;52.420;10.538;2023-09-19T17:52:44;18.50;55.50
80577;DHT22;69937;52.420;10.538;2023-09-19T17:57:45;18.40;55.80
80577;DHT22;69937;52.420;10.538;2023-09-19T18:02:48;18.30;56.10
80577;DHT22;69937;52.420;10.538;2023-09-19T18:07:48;18.20;56.20
80577;DHT22;69937;52.420;10.538;2023-09-19T18:12:49;18.10;56.50
80577;DHT22;69937;52.420;10.538;2023-09-19T18:17:51;18.00;56.60
80577;DHT22;69937;52.420;10.538;2023-09-19T18:22:52;18.00;56.80
80577;DHT22;69937;52.420;10.538;2023-09-19T18:27:54;17.80;56.60
80577;DHT22;69937;52.420;10.538;2023-09-19T18:32:54;17.80;56.70
80577;DHT22;69937;52.420;10.538;2023-09-19T18:37:55;17.80;56.60
80577;DHT22;69937;52.420;10.538;2023-09-19T18:42:56;17.80;56.50
80577;DHT22;69937;52.420;10.538;2023-09-19T18:47:57;17.80;56.30
80577;DHT22;69937;52.420;10.538;2023-09-19T18:52:57;17.80;56.30
80577;DHT22;69937;52.420;10.538;2023-09-19T18:57:58;17.80;56.20
80577;DHT22;69937;52.420;10.538;2023-09-19T19:02:58;17.80;56.10
80577;DHT22;69937;52.420;10.538;2023-09-19T19:08:01;17.80;56.00
80577;DHT22;69937;52.420;10.538;2023-09-19T19:13:01;17.80;56.00
80577;DHT22;69937;52.420;10.538;2023-09-19T19:18:02;17.80;56.00
80577;DHT22;69937;52.420;10.538;2023-09-19T19:23:03;17.80;55.90
80577;DHT22;69937;52.420;10.538;2023-09-19T19:28:04;17.80;55.80
80577;DHT22;69937;52.420;10.538;2023-09-19T19:33:05;17.70;56.00
80577;DHT22;69937;52.420;10.538;2023-09-19T19:38:08;17.70;56.10
80577;DHT22;69937;52.420;10.538;2023-09-19T19:43:09;17.70;56.20
80577;DHT22;69937;52.420;10.538;2023-09-19T19:48:10;17.60;56.40
80577;DHT22;69937;52.420;10.538;2023-09-19T19:53:10;17.50;56.40
80577;DHT22;69937;52.420;10.538;2023-09-19T19:58:11;17.50;56.50
80577;DHT22;69937;52.420;10.538;2023-09-19T20:03:12;17.50;56.70
80577;DHT22;69937;52.420;10.538;2023-09-19T20:08:13;17.50;56.80
80577;DHT22;69937;52.420;10.538;2023-09-19T20:13:13;17.40;56.90
80577;DHT22;69937;52.420;10.538;2023-09-19T20:18:15;17.40;56.90
80577;DHT22;69937;52.420;10.538;2023-09-19T20:23:16;17.40;56.90
80577;DHT22;69937;52.420;10.538;2023-09-19T20:28:17;17.30;57.10
80577;DHT22;69937;52.420;10.538;2023-09-19T20:33:18;17.30;57.30
80577;DHT22;69937;52.420;10.538;2023-09-19T20:38:18;17.20;57.30
80577;DHT22;69937;52.420;10.538;2023-09-19T20:43:19;17.20;57.70
80577;DHT22;69937;52.420;10.538;2023-09-19T20:48:19;17.20;57.70
80577;DHT22;69937;52.420;10.538;2023-09-19T20:53:20;17.10;57.80
80577;DHT22;69937;52.420;10.538;2023-09-19T20:58:21;17.00;58.00
80577;DHT22;69937;52.420;10.538;2023-09-19T21:03:21;17.00;57.90
80577;DHT22;69937;52.420;10.538;2023-09-19T21:08:22;17.10;58.00
80577;DHT22;69937;52.420;10.538;2023-09-19T21:13:23;17.10;58.00
80577;DHT22;69937;52.420;10.538;2023-09-19T21:18:23;17.10;58.00
80577;DHT22;69937;52.420;10.538;2023-09-19T21:23:24;17.00;57.90
80577;DHT22;69937;52.420;10.538;2023-09-19T21:28:26;17.00;58.00
80577;DHT22;69937;52.420;10.538;2023-09-19T21:33:27;17.00;58.20
80577;DHT22;69937;52.420;10.538;2023-09-19T21:38:29;17.00;58.40
80577;DHT22;69937;52.420;10.538;2023-09-19T21:43:30;17.00;58.30
80577;DHT22;69937;52.420;10.538;2023-09-19T21:48:31;17.00;58.40
80577;DHT22;69937;52.420;10.538;2023-09-19T21:53:32;16.90;58.40
80577;DHT22;69937;52.420;10.538;2023-09-19T21:58:35;16.90;58.50
80577;DHT22;69937;52.420;10.538;2023-09-19T22:03:38;16.90;58.50
80577;DHT22;69937;52.420;10.538;2023-09-19T22:08:39;16.90;58.80
80577;DHT22;69937;52.420;10.538;2023-09-19T22:13:41;16.90;58.80
80577;DHT22;69937;52.420;10.538;2023-09-19T22:18:44;16.90;58.90
80577;DHT22;69937;52.420;10.538;2023-09-19T22:23:48;16.90;58.80
80577;DHT22;69937;52.420;10.538;2023-09-19T22:28:52;16.90;58.80
80577;DHT22;69937;52.420;10.538;2023-09-19T22:33:54;16.90;58.90
80577;DHT22;69937;52.420;10.538;2023-09-19T22:38:55;16.90;58.80
80577;DHT22;69937;52.420;10.538;2023-09-19T22:44:00;16.90;58.90
80577;DHT22;69937;52.420;10.538;2023-09-19T22:49:00;16.90;59.00
80577;DHT22;69937;52.420;10.538;2023-09-19T22:54:04;16.90;59.20
80577;DHT22;69937;52.420;10.538;2023-09-19T22:59:11;16.90;59.20
80577;DHT22;69937;52.420;10.538;2023-09-19T23:04:12;16.90;59.40
80577;DHT22;69937;52.420;10.538;2023-09-19T23:09:23;16.80;59.40
80577;DHT22;69937;52.420;10.538;2023-09-19T23:14:24;16.80;59.40
80577;DHT22;69937;52.420;10.538;2023-09-19T23:19:33;16.80;59.60
80577;DHT22;69937;52.420;10.538;2023-09-19T23:24:34;16.80;59.80
80577;DHT22;69937;52.420;10.538;2023-09-19T23:29:38;16.80;59.90
80577;DHT22;69937;52.420;10.538;2023-09-19T23:34:39;16.80;60.00
80577;DHT22;69937;52.420;10.538;2023-09-19T23:39:40;16.70;60.10
80577;DHT22;69937;52.420;10.538;2023-09-19T23:44:44;16.70;60.30
80577;DHT22;69937;52.420;10.538;2023-09-19T23:49:48;16.70;60.40
80577;DHT22;69937;52.420;10.538;2023-09-19T23:54:49;16.70;60.50
80577;DHT22;69937;52.420;10.538;2023-09-19T23:59:51;16.70;60.60
